Douglas, Alaska
Current Conditions -  °F | °C
As of 11:53 AM on Saturday 25 Oct 2014 (Local Time) from PAJN Reporting Station
Haze Haze  
Wind Chill: 40°   Ceiling: 200
Heat Index: 40°   Visibility: 0.5mi
Dew Point: 40°   Wind: 0mph
Humidity: 100%   Direction: NA
Pressure: 29.75"   Gusts: NA
Location:  58.27°N, 134.41°W
Report Text: PAJN 251953Z 00000KT 1/2SM R08/P6000FT BR OVC002 04/04 A2975 RMK AO2 SFC VIS 3/4 SLP075 VIS SW 4 T00440044
Loading
Personal Weather Stations






























Interactive Weather Map
Tropical Storm Tracking
New forecast layout! Learn more

10-Day Weather Forecast

Advertisements
Track Severe Weather on mobile